KGUC

Gunnison-Crested Butte Regional Airport

Gunnison, Colorado, USA
METAR KGUC 232156Z AUTO 24006KT 10SM CLR 01/M14 A2981 RMK AO2 SLP144 T00061139 FZRANO
Observed Flight Rules
Feb-23 @ 21:56 UTC (34 minutes ago) Visual Flight Rules
Wind Visibility Clouds
240° at 6 knots 10 miles
  • Clear skies
Temperatures Readings
Current 1°C / 34°F
Dewpoint -14°C / 7°F
Humidity 32%
Altimeter 29.81" Hg
Pressure 1014.4 hPa
Elevation 2339
METAR KGUC 232156Z AUTO 24006KT 10SM CLR 01/M14 A2981 RMK AO2 SLP144 T00061139 FZRANO
Observed Flight Rules
Feb-23 @ 21:56 UTC
(34 minutes ago)
VFR
Wind Visibility
240° at 6 knots 10 miles
Clouds
  • Clear skies
Temperature Dewpoint
1°C / 34°F -14°C / 7°F
Humidity Altimeter Pressure
32% 29.81" Hg 1014.4 hPa